createdAt,value
2018-08-17T00:00:11.724Z,19.70
2018-08-17T00:08:38.507Z,19.70
2018-08-17T00:11:07.041Z,19.60
2018-08-17T00:13:50.392Z,19.60
2018-08-17T00:16:18.918Z,19.60
2018-08-17T00:18:47.639Z,19.60
2018-08-17T00:21:16.254Z,19.60
2018-08-17T00:23:47.063Z,19.50
2018-08-17T00:26:18.899Z,19.50
2018-08-17T00:28:47.679Z,19.50
2018-08-17T00:31:16.198Z,19.50
2018-08-17T00:33:45.042Z,19.50
2018-08-17T00:36:13.681Z,19.40
2018-08-17T00:38:42.455Z,19.40
2018-08-17T00:44:03.056Z,19.40
2018-08-17T00:46:31.613Z,19.40
2018-08-17T00:54:47.893Z,19.30
2018-08-17T00:57:16.578Z,19.20
2018-08-17T00:59:45.346Z,19.20
2018-08-17T01:02:20.004Z,19.20
2018-08-17T01:04:49.955Z,19.20
2018-08-17T01:10:09.623Z,19.10
2018-08-17T01:12:38.219Z,19.10
2018-08-17T01:15:09.304Z,19.10
2018-08-17T01:17:37.812Z,19.10
2018-08-17T01:20:10.078Z,19.10
2018-08-17T01:22:39.085Z,19.10
2018-08-17T01:25:07.768Z,19.00
2018-08-17T01:27:36.401Z,19.00
2018-08-17T01:30:06.162Z,19.00
2018-08-17T01:32:38.481Z,19.00
2018-08-17T01:35:07.382Z,19.00
2018-08-17T01:37:35.866Z,19.00
2018-08-17T01:40:04.734Z,19.00
2018-08-17T01:42:37.304Z,19.00
2018-08-17T01:45:06.332Z,19.00
2018-08-17T01:47:35.913Z,19.00
2018-08-17T01:50:21.648Z,18.90
2018-08-17T01:52:57.086Z,18.90
2018-08-17T01:55:29.752Z,18.90
2018-08-17T01:57:58.211Z,18.90
2018-08-17T02:00:28.901Z,18.90
2018-08-17T02:02:57.421Z,18.90
2018-08-17T02:05:31.933Z,18.90
2018-08-17T02:08:04.579Z,18.90
2018-08-17T02:10:34.553Z,18.90
2018-08-17T02:13:03.297Z,18.90
2018-08-17T02:15:31.892Z,18.90
2018-08-17T02:18:04.228Z,18.90
2018-08-17T02:20:33.026Z,18.90
2018-08-17T02:23:02.846Z,18.90
2018-08-17T02:25:33.440Z,18.90
2018-08-17T02:28:03.853Z,18.90
2018-08-17T02:30:44.100Z,18.90
2018-08-17T02:33:12.821Z,18.90
2018-08-17T02:35:41.478Z,18.90
2018-08-17T02:38:11.826Z,18.90
2018-08-17T02:43:28.484Z,19.00
2018-08-17T02:45:57.036Z,19.00
2018-08-17T02:48:28.075Z,19.00
2018-08-17T02:50:56.637Z,19.00
2018-08-17T02:53:37.620Z,19.00
2018-08-17T02:56:06.540Z,18.90
2018-08-17T02:58:55.157Z,18.90
2018-08-17T03:01:23.803Z,18.90
2018-08-17T03:04:01.861Z,19.00
2018-08-17T03:06:30.356Z,19.00
2018-08-17T03:08:59.918Z,18.90
2018-08-17T03:11:29.162Z,18.90
2018-08-17T03:14:01.580Z,18.90
2018-08-17T03:16:36.200Z,18.90
2018-08-17T03:19:06.956Z,18.90
2018-08-17T03:21:35.586Z,19.00
2018-08-17T03:24:04.514Z,19.00
2018-08-17T03:26:32.963Z,19.00
2018-08-17T03:29:06.316Z,19.00
2018-08-17T03:31:42.829Z,19.00
2018-08-17T04:41:15.316Z,19.00
2018-08-17T04:43:43.847Z,17.90
2018-08-17T04:46:13.886Z,17.90
2018-08-17T04:48:43.138Z,17.80
2018-08-17T04:51:16.508Z,17.80
2018-08-17T04:53:48.469Z,17.80
2018-08-17T04:56:17.106Z,17.80
2018-08-17T04:58:50.937Z,17.80
2018-08-17T05:01:19.434Z,17.80
2018-08-17T05:03:47.952Z,17.90
2018-08-17T05:09:22.802Z,17.90
2018-08-17T05:11:51.208Z,17.90
2018-08-17T05:14:25.909Z,17.90
2018-08-17T05:16:54.337Z,17.90
2018-08-17T05:19:22.861Z,17.90
2018-08-17T05:22:11.968Z,17.90
2018-08-17T05:24:42.006Z,17.90
2018-08-17T05:27:10.472Z,17.90
2018-08-17T05:29:41.591Z,17.90
2018-08-17T05:32:11.314Z,17.90
2018-08-17T05:34:39.798Z,17.90
2018-08-17T05:37:13.284Z,17.90
2018-08-17T05:39:47.375Z,17.90
2018-08-17T05:44:59.171Z,18.00
2018-08-17T05:47:30.058Z,18.00
2018-08-17T05:50:10.655Z,18.00
2018-08-17T05:52:45.661Z,18.10
2018-08-17T05:55:29.914Z,18.10
2018-08-17T05:58:04.004Z,18.20
2018-08-17T06:00:41.132Z,18.20
2018-08-17T06:03:16.690Z,18.30
2018-08-17T06:05:45.214Z,18.30
2018-08-17T06:08:13.822Z,18.40
2018-08-17T06:10:42.381Z,18.40
2018-08-17T06:13:10.824Z,18.50
2018-08-17T06:15:46.075Z,18.60
2018-08-17T06:44:51.840Z,18.70
2018-08-17T06:47:22.861Z,18.50
2018-08-17T06:49:58.152Z,18.40
2018-08-17T06:52:26.733Z,18.40
2018-08-17T06:55:09.989Z,18.40
2018-08-17T06:57:39.181Z,18.30
2018-08-17T07:14:52.946Z,17.80
2018-08-17T07:17:22.874Z,17.80
2018-08-17T07:19:53.258Z,17.80
2018-08-17T07:22:27.775Z,17.70
2018-08-17T07:25:04.057Z,17.60
2018-08-17T07:27:33.883Z,17.60
2018-08-17T07:30:03.520Z,17.50
2018-08-17T07:32:33.279Z,17.50
2018-08-17T07:35:07.255Z,17.50
2018-08-17T07:37:35.838Z,17.50
2018-08-17T07:40:10.730Z,17.50
2018-08-17T07:42:39.722Z,17.60
2018-08-17T07:45:08.249Z,17.60
2018-08-17T07:47:36.979Z,17.70
2018-08-17T08:21:56.795Z,18.30
2018-08-17T08:24:25.449Z,18.30
2018-08-17T08:26:56.912Z,18.40
2018-08-17T08:29:25.497Z,18.50
2018-08-17T08:31:54.063Z,18.60
2018-08-17T08:34:24.503Z,18.70
2018-08-17T08:36:53.076Z,18.70
2018-08-17T08:39:21.513Z,18.80
2018-08-17T08:41:50.426Z,18.90
2018-08-17T08:44:19.942Z,19.00
2018-08-17T08:46:48.401Z,19.00
2018-08-17T08:52:09.666Z,19.20
2018-08-17T08:54:39.391Z,19.40
2018-08-17T08:57:09.024Z,19.50
2018-08-17T08:59:38.063Z,19.50
2018-08-17T09:02:06.714Z,19.50
2018-08-17T09:04:36.686Z,19.50
2018-08-17T09:07:05.214Z,19.50
2018-08-17T09:09:33.962Z,19.50
2018-08-17T09:12:02.571Z,19.50
2018-08-17T09:14:33.691Z,19.50
2018-08-17T09:17:02.517Z,19.50
2018-08-17T09:19:36.907Z,19.60
2018-08-17T09:22:05.466Z,19.60
2018-08-17T09:24:34.046Z,19.70
2018-08-17T09:27:02.542Z,19.80
2018-08-17T09:29:30.997Z,19.90
2018-08-17T09:32:00.129Z,20.00
2018-08-17T09:34:29.435Z,20.00
2018-08-17T09:37:10.842Z,20.10
2018-08-17T09:39:39.204Z,20.20
2018-08-17T09:42:07.751Z,20.30
2018-08-17T09:44:36.038Z,20.40
2018-08-17T09:47:04.469Z,20.50
2018-08-17T09:52:23.631Z,20.60
2018-08-17T09:54:52.203Z,20.60
2018-08-17T09:57:20.809Z,20.50
2018-08-17T09:59:49.434Z,20.40
2018-08-17T10:02:23.279Z,20.40
2018-08-17T10:04:57.161Z,20.40
2018-08-17T10:24:47.392Z,20.50
2018-08-17T10:27:16.073Z,20.50
2018-08-17T10:29:44.744Z,20.60
2018-08-17T10:41:17.991Z,20.90
2018-08-17T10:43:47.318Z,20.90
2018-08-17T10:46:15.902Z,21.00
2018-08-17T10:48:44.494Z,21.10
2018-08-17T10:51:16.257Z,21.20
2018-08-17T10:53:47.349Z,21.40
2018-08-17T10:56:16.829Z,21.40
2018-08-17T10:58:45.453Z,21.30
2018-08-17T11:01:13.930Z,21.20
2018-08-17T11:03:43.037Z,21.10
2018-08-17T11:06:12.585Z,21.00
2018-08-17T11:08:41.142Z,20.80
2018-08-17T11:11:09.739Z,20.70
2018-08-17T11:13:43.818Z,20.70
2018-08-17T11:16:12.553Z,20.80
2018-08-17T11:18:41.033Z,20.80
2018-08-17T11:21:09.503Z,21.00
2018-08-17T11:23:37.952Z,21.10
2018-08-17T11:26:06.571Z,21.20
2018-08-17T11:28:35.057Z,21.20
2018-08-17T11:31:03.622Z,21.30
2018-08-17T11:33:32.219Z,21.40
2018-08-17T11:36:00.758Z,21.50
2018-08-17T11:38:29.273Z,21.70
2018-08-17T11:40:57.714Z,21.80
2018-08-17T11:43:26.300Z,21.90
2018-08-17T11:45:55.079Z,22.00
2018-08-17T11:48:35.060Z,22.00
2018-08-17T11:51:03.504Z,22.10
2018-08-17T11:53:32.059Z,22.10
2018-08-17T11:56:01.102Z,22.20
2018-08-17T11:58:29.618Z,22.20
2018-08-17T12:00:57.995Z,22.30
2018-08-17T12:03:26.358Z,22.40
2018-08-17T12:05:55.053Z,22.50
2018-08-17T12:08:24.489Z,22.60
2018-08-17T12:11:03.247Z,22.70
2018-08-17T12:13:31.845Z,22.80
2018-08-17T12:16:00.343Z,22.70
2018-08-17T12:18:28.814Z,22.70
2018-08-17T12:20:57.264Z,22.80
2018-08-17T12:23:36.259Z,22.90
2018-08-17T12:26:04.749Z,23.10
2018-08-17T12:28:33.884Z,23.30
2018-08-17T12:31:03.187Z,23.40
2018-08-17T12:33:31.713Z,23.40
2018-08-17T12:36:02.802Z,23.40
2018-08-17T12:38:31.265Z,23.50
2018-08-17T12:40:59.721Z,23.50
2018-08-17T12:43:35.867Z,23.50
2018-08-17T12:46:04.365Z,23.50
2018-08-17T12:48:32.870Z,23.60
2018-08-17T12:51:03.841Z,23.60
2018-08-17T12:53:32.318Z,23.80
2018-08-17T12:56:00.838Z,23.80
2018-08-17T12:58:29.225Z,23.90
2018-08-17T13:09:11.606Z,23.80
2018-08-17T13:11:45.356Z,23.10
2018-08-17T13:14:14.077Z,22.90
2018-08-17T13:16:44.391Z,22.70
2018-08-17T13:19:15.330Z,22.60
2018-08-17T13:21:45.338Z,22.60
2018-08-17T13:24:14.066Z,22.50
2018-08-17T13:26:42.759Z,22.50
2018-08-17T13:29:12.703Z,22.50
2018-08-17T13:40:27.073Z,22.40
2018-08-17T13:42:55.608Z,22.40
2018-08-17T13:45:24.311Z,22.40
2018-08-17T13:53:51.531Z,22.40
2018-08-17T13:56:19.902Z,22.50
2018-08-17T13:58:48.385Z,22.50
2018-08-17T14:01:16.849Z,22.60
2018-08-17T14:03:45.220Z,22.60
2018-08-17T14:06:39.990Z,22.80
2018-08-17T14:09:10.024Z,22.90
2018-08-17T14:11:38.454Z,22.90
2018-08-17T14:14:07.613Z,23.00
2018-08-17T14:16:37.920Z,23.00
2018-08-17T14:19:08.014Z,23.00
2018-08-17T14:21:36.609Z,23.00
2018-08-17T14:26:56.171Z,23.00
2018-08-17T14:29:25.771Z,23.00
2018-08-17T14:31:54.189Z,23.10
2018-08-17T14:34:22.744Z,23.40
2018-08-17T14:36:51.197Z,23.60
2018-08-17T14:45:01.130Z,24.40
2018-08-17T14:47:47.182Z,24.50
2018-08-17T14:50:15.983Z,24.60
2018-08-17T14:52:44.505Z,24.80
2018-08-17T14:55:14.510Z,24.80
2018-08-17T15:00:45.789Z,24.90
2018-08-17T15:03:14.301Z,24.70
2018-08-17T15:08:46.466Z,24.50
2018-08-17T15:11:15.148Z,24.40
2018-08-17T15:16:50.624Z,24.40
2018-08-17T15:19:19.023Z,24.30
2018-08-17T15:21:47.549Z,23.90
2018-08-17T15:24:15.971Z,23.80
2018-08-17T15:26:44.374Z,23.70
2018-08-17T15:29:13.094Z,23.70
2018-08-17T15:31:41.611Z,23.60
2018-08-17T15:34:10.056Z,23.50
2018-08-17T15:36:38.638Z,23.60
2018-08-17T15:39:13.577Z,23.60
2018-08-17T15:41:43.412Z,23.70
2018-08-17T15:44:16.818Z,23.80
2018-08-17T15:46:45.357Z,23.90
2018-08-17T15:49:18.880Z,24.10
2018-08-17T15:51:47.635Z,24.20
2018-08-17T15:54:16.031Z,24.30
2018-08-17T15:56:44.396Z,24.50
2018-08-17T15:59:32.823Z,24.50
2018-08-17T16:02:01.244Z,24.50
2018-08-17T16:04:29.640Z,24.40
2018-08-17T16:06:58.181Z,24.40
2018-08-17T16:09:26.578Z,24.30
2018-08-17T16:11:55.041Z,24.30
2018-08-17T16:14:23.415Z,24.20
2018-08-17T16:19:42.369Z,24.00
2018-08-17T16:22:10.825Z,23.90
2018-08-17T16:24:39.358Z,23.80
2018-08-17T16:29:58.025Z,23.60
2018-08-17T16:32:26.745Z,23.50
2018-08-17T16:34:55.062Z,23.40
2018-08-17T16:37:23.385Z,23.30
2018-08-17T16:39:55.494Z,23.20
2018-08-17T16:42:28.187Z,23.00
2018-08-17T16:45:04.165Z,23.00
2018-08-17T16:47:32.570Z,22.90
2018-08-17T16:50:03.028Z,22.80
2018-08-17T16:52:36.510Z,22.70
2018-08-17T16:55:05.302Z,22.70
2018-08-17T16:57:33.589Z,22.60
2018-08-17T17:00:02.056Z,22.60
2018-08-17T17:02:30.314Z,22.60
2018-08-17T17:04:58.684Z,22.50
2018-08-17T17:07:29.985Z,22.50
2018-08-17T17:09:58.474Z,22.40
2018-08-17T17:12:27.355Z,22.40
2018-08-17T17:15:11.628Z,22.30
2018-08-17T17:17:40.185Z,22.20
2018-08-17T17:26:11.668Z,22.10
2018-08-17T17:28:40.277Z,22.00
2018-08-17T17:31:18.880Z,21.90
2018-08-17T17:33:47.447Z,21.90
2018-08-17T17:36:16.010Z,21.90
2018-08-17T17:38:44.462Z,21.90
2018-08-17T17:41:12.909Z,21.90
2018-08-17T17:49:22.689Z,21.70
2018-08-17T17:51:52.562Z,21.60
2018-08-17T17:54:23.010Z,21.50
2018-08-17T17:57:09.061Z,21.40
2018-08-17T17:59:43.242Z,21.40
2018-08-17T18:02:12.009Z,21.30
2018-08-17T18:04:40.532Z,21.30
2018-08-17T18:07:09.939Z,21.20
2018-08-17T18:09:42.053Z,21.20
2018-08-17T19:33:57.756Z,21.00
2018-08-17T19:36:30.071Z,18.90
2018-08-17T19:42:09.900Z,18.70
2018-08-17T20:01:52.741Z,18.20
2018-08-17T20:04:29.209Z,18.10
2018-08-17T20:07:04.010Z,18.00
2018-08-17T20:09:37.671Z,18.00
2018-08-17T20:12:23.675Z,17.90
2018-08-17T20:32:08.224Z,17.50
2018-08-17T20:43:29.693Z,17.30
2018-08-17T20:45:59.695Z,17.10
2018-08-17T20:48:30.928Z,17.00
2018-08-17T20:51:04.604Z,17.00
2018-08-17T20:53:35.190Z,16.90
2018-08-17T20:56:07.508Z,16.90
2018-08-17T20:58:41.281Z,16.90
2018-08-17T21:01:20.186Z,16.80
2018-08-17T21:03:57.081Z,16.70
2018-08-17T21:06:30.841Z,16.70
2018-08-17T21:29:35.425Z,16.20
2018-08-17T21:32:11.726Z,16.20
2018-08-17T22:12:02.460Z,15.60
2018-08-17T22:14:32.485Z,15.50
2018-08-17T22:17:22.994Z,15.50
2018-08-17T22:19:51.688Z,15.40
2018-08-17T23:31:35.718Z,15.40
2018-08-17T23:51:48.332Z,14.30
